Time;durP1;ratioP1;P1;durP2;ratioP2;P2;SDS_P1;SDS_P2;PMS_P1;PMS_P2;Temp;Humidity;BMP_temperature;BMP_pressure;BME280_temperature;BME280_humidity;BME280_pressure;Samples;Min_cycle;Max_cycle;Signal;HPM_P1;HPM_P2
2023/12/26 00:00:36;;;;;;;3.75;1.95;;;;;;;10.85;49.20;98744.38;5105798;28;20040;-70
2023/12/26 00:03:06;;;;;;;3.72;1.95;;;;;;;10.84;49.04;98748.81;5105345;28;20308;-70
2023/12/26 00:05:33;;;;;;;2.95;1.83;;;;;;;10.85;49.08;98752.31;5105338;28;20051;-70
2023/12/26 00:08:02;;;;;;;2.50;1.80;;;;;;;10.81;49.03;98737.56;5105254;28;20040;-70
2023/12/26 00:10:29;;;;;;;2.75;1.60;;;;;;;10.64;48.89;98725.41;5108112;28;20327;-70
2023/12/26 00:12:56;;;;;;;3.65;1.92;;;;;;;10.78;48.30;98730.66;5109127;28;20188;-70
2023/12/26 00:15:23;;;;;;;2.70;1.65;;;;;;;10.79;48.35;98729.72;5109396;28;20098;-70
2023/12/26 00:17:51;;;;;;;2.85;1.65;;;;;;;10.79;48.17;98728.88;5109292;28;20062;-69
2023/12/26 00:20:18;;;;;;;2.42;1.80;;;;;;;10.79;48.42;98732.38;5109174;28;20059;-71
2023/12/26 00:22:45;;;;;;;3.00;1.88;;;;;;;10.78;48.18;98722.72;5108914;28;20300;-70
2023/12/26 00:25:12;;;;;;;3.13;1.80;;;;;;;10.78;48.34;98722.72;5109164;28;20101;-71
2023/12/26 00:27:39;;;;;;;2.88;2.05;;;;;;;10.77;47.88;98728.09;5109155;28;20349;-70
2023/12/26 00:30:08;;;;;;;2.70;1.63;;;;;;;10.76;47.75;98723.75;5109093;28;20039;-71
2023/12/26 00:32:35;;;;;;;2.85;1.92;;;;;;;10.28;47.91;98644.72;5109050;28;20254;-70
2023/12/26 00:35:04;;;;;;;3.30;1.95;;;;;;;10.77;48.37;98728.09;5108964;28;20040;-71
2023/12/26 00:37:31;;;;;;;3.30;1.98;;;;;;;10.75;48.15;98724.69;5108928;28;20055;-71
2023/12/26 00:39:58;;;;;;;2.45;1.70;;;;;;;10.31;47.86;98664.84;5108886;28;20048;-70
2023/12/26 00:42:25;;;;;;;3.28;2.17;;;;;;;10.76;48.01;98729.88;5108735;28;20093;-70
2023/12/26 00:44:51;;;;;;;2.97;1.80;;;;;;;10.75;48.08;98725.53;5108836;28;20055;-70
2023/12/26 00:47:19;;;;;;;2.50;1.70;;;;;;;10.74;47.73;98731.78;5108508;28;20094;-70
2023/12/26 00:49:46;;;;;;;3.30;1.80;;;;;;;10.70;47.28;98722.34;5108746;28;20035;-69
2023/12/26 00:52:14;;;;;;;3.13;1.77;;;;;;;10.69;47.23;98728.59;5108649;28;20069;-70
2023/12/26 00:54:41;;;;;;;3.97;2.08;;;;;;;10.71;47.85;98728.50;5108831;28;20370;-70
2023/12/26 00:57:08;;;;;;;2.75;1.85;;;;;;;10.75;47.58;98735.28;5107742;28;20101;-71
2023/12/26 00:59:34;;;;;;;3.63;1.88;;;;;;;10.76;47.25;98734.34;5108504;28;20048;-71
2023/12/26 01:02:02;;;;;;;3.15;1.73;;;;;;;10.75;47.42;98732.63;5107220;28;20345;-71
2023/12/26 01:04:28;;;;;;;3.15;1.70;;;;;;;10.73;47.37;98723.94;5108741;28;20284;-70
2023/12/26 01:06:55;;;;;;;2.53;1.50;;;;;;;10.75;47.88;98732.63;5108374;28;20050;-71
2023/12/26 01:09:23;;;;;;;3.28;1.70;;;;;;;10.76;47.79;98737.00;5107839;28;20067;-70
2023/12/26 01:11:50;;;;;;;2.95;1.80;;;;;;;10.75;47.76;98722.03;5108580;28;20044;-70
2023/12/26 01:14:16;;;;;;;3.65;2.10;;;;;;;10.75;47.30;98716.75;5108230;28;20055;-71
2023/12/26 01:16:45;;;;;;;2.60;1.70;;;;;;;10.75;47.47;98728.19;5108259;28;20040;-71
2023/12/26 01:19:12;;;;;;;3.58;2.10;;;;;;;10.56;47.26;98690.59;5108476;28;20075;-70
2023/12/26 01:21:39;;;;;;;2.78;1.60;;;;;;;10.77;46.87;98714.84;5073517;28;20295;-70
2023/12/26 01:24:06;;;;;;;2.70;1.77;;;;;;;10.78;46.32;98712.13;5106943;28;20081;-71
2023/12/26 01:26:35;;;;;;;3.63;1.70;;;;;;;10.65;46.52;98691.78;5107966;28;20062;-71
2023/12/26 01:29:02;;;;;;;3.63;2.20;;;;;;;10.82;46.76;98716.25;5107374;28;20349;-70
2023/12/26 01:31:29;;;;;;;1.90;1.42;;;;;;;10.83;46.30;98719.75;5107037;28;20032;-70
2023/12/26 01:33:56;;;;;;;2.97;1.48;;;;;;;10.83;46.26;98723.25;5107801;28;20052;-70
2023/12/26 01:36:22;;;;;;;2.80;1.77;;;;;;;10.54;46.23;98660.69;5107772;28;20101;-70
2023/12/26 01:38:49;;;;;;;4.25;1.75;;;;;;;10.86;46.60;98723.06;5107709;28;20090;-70
2023/12/26 01:41:16;;;;;;;2.58;1.67;;;;;;;10.86;46.18;98720.41;5107590;28;20070;-71
2023/12/26 01:43:44;;;;;;;2.42;1.63;;;;;;;10.86;45.86;98719.56;5106703;28;20044;-70
2023/12/26 01:46:12;;;;;;;4.35;2.03;;;;;;;10.86;46.47;98716.91;5107576;28;20089;-70
2023/12/26 01:48:39;;;;;;;2.33;1.60;;;;;;;10.87;46.39;98723.91;5108093;28;20052;-70
2023/12/26 01:51:09;;;;;;;2.53;1.60;;;;;;;10.89;46.17;98714.06;5107232;28;20043;-69
2023/12/26 01:53:38;;;;;;;2.38;1.52;;;;;;;10.88;46.26;98715.84;5107482;28;20039;-70
2023/12/26 01:56:08;;;;;;;3.40;1.50;;;;;;;10.87;45.70;98708.84;5107848;28;20071;-70
2023/12/26 01:58:35;;;;;;;2.60;1.73;;;;;;;10.90;46.55;98713.94;5107422;28;20244;-70
2023/12/26 02:01:04;;;;;;;2.95;1.90;;;;;;;10.88;46.67;98709.72;5107202;28;20044;-71
2023/12/26 02:03:32;;;;;;;2.50;1.58;;;;;;;10.83;46.27;98703.84;5107229;28;20112;-70
2023/12/26 02:06:00;;;;;;;2.50;1.80;;;;;;;10.86;46.71;98701.84;5107188;28;20063;-71
2023/12/26 02:08:28;;;;;;;2.92;1.52;;;;;;;10.86;46.60;98715.09;5106888;28;20036;-70
2023/12/26 02:10:55;;;;;;;3.50;1.73;;;;;;;10.85;47.16;98709.91;5106722;28;20059;-70
2023/12/26 02:13:22;;;;;;;2.80;1.60;;;;;;;10.84;46.38;98701.09;5107119;28;20052;-70
2023/12/26 02:15:51;;;;;;;3.33;2.00;;;;;;;10.79;46.79;98700.56;5106209;28;20040;-71
2023/12/26 02:18:19;;;;;;;2.90;1.77;;;;;;;10.78;46.82;98704.16;5106976;28;20062;-70
2023/12/26 02:20:46;;;;;;;3.00;1.80;;;;;;;10.77;47.14;98693.63;5106588;28;20356;-71
2023/12/26 02:23:13;;;;;;;6.18;2.05;;;;;;;10.77;47.05;98698.94;5106906;28;20040;-71
2023/12/26 02:25:41;;;;;;;3.00;2.03;;;;;;;10.78;47.44;98693.56;5107145;28;20051;-70
2023/12/26 02:28:09;;;;;;;3.15;2.00;;;;;;;10.78;46.97;98695.38;5106540;28;20089;-70
2023/12/26 02:30:37;;;;;;;2.55;1.65;;;;;;;10.76;45.94;98691.94;5106486;28;20105;-71
2023/12/26 02:33:05;;;;;;;1.95;1.45;;;;;;;10.77;45.77;98689.22;5105651;28;20235;-71
2023/12/26 02:35:33;;;;;;;1.95;1.33;;;;;;;10.57;45.00;98656.06;5106263;28;20047;-71
2023/12/26 02:38:01;;;;;;;2.50;1.42;;;;;;;10.73;44.54;98681.53;5106611;28;20097;-71
2023/12/26 02:40:27;;;;;;;3.83;1.73;;;;;;;10.74;44.33;98684.09;5106588;28;20306;-71
2023/12/26 02:42:56;;;;;;;2.97;1.70;;;;;;;10.78;44.88;98677.66;5106083;28;20208;-71
2023/12/26 02:45:22;;;;;;;2.30;1.70;;;;;;;10.73;44.50;98678.88;5105624;28;20062;-71
2023/12/26 02:47:49;;;;;;;2.10;1.40;;;;;;;10.72;44.67;98675.38;5106160;28;20047;-70
2023/12/26 02:50:16;;;;;;;2.55;1.58;;;;;;;10.71;42.82;98675.47;5106478;28;20040;-72
2023/12/26 02:52:43;;;;;;;2.40;1.55;;;;;;;10.74;42.26;98670.81;5106417;28;20040;-71
2023/12/26 02:55:09;;;;;;;2.45;1.42;;;;;;;10.60;43.27;98647.03;5106350;28;20097;-70
2023/12/26 02:57:36;;;;;;;3.42;1.50;;;;;;;10.67;44.78;98666.03;5106293;28;20035;-71
2023/12/26 03:00:05;;;;;;;3.55;1.70;;;;;;;10.68;45.17;98673.88;5106068;28;20225;-70
2023/12/26 03:02:33;;;;;;;3.15;1.88;;;;;;;10.69;45.55;98670.28;5104998;28;20054;-70
2023/12/26 03:05:00;;;;;;;2.97;1.80;;;;;;;10.69;45.46;98669.44;5106195;28;20067;-70
2023/12/26 03:07:27;;;;;;;3.92;1.65;;;;;;;10.74;45.95;98664.69;5106221;28;20040;-70
2023/12/26 03:09:54;;;;;;;2.90;1.90;;;;;;;10.54;45.78;98631.56;5106123;28;20113;-70
2023/12/26 03:12:20;;;;;;;3.13;2.05;;;;;;;10.71;45.92;98667.53;5106081;28;20055;-70
2023/12/26 03:14:47;;;;;;;2.45;1.50;;;;;;;10.70;44.94;98657.88;5106086;28;20043;-70
2023/12/26 03:17:15;;;;;;;3.08;1.60;;;;;;;10.69;43.13;98659.69;5105790;28;20044;-70
2023/12/26 03:19:42;;;;;;;4.05;1.65;;;;;;;10.67;41.92;98652.78;5105686;28;20189;-70
2023/12/26 03:22:08;;;;;;;3.05;1.75;;;;;;;10.69;41.05;98657.03;5105597;28;20043;-70
2023/12/26 03:24:35;;;;;;;1.85;1.25;;;;;;;10.69;39.76;98654.38;5105930;28;20043;-70
2023/12/26 03:27:02;;;;;;;2.40;1.48;;;;;;;10.67;40.05;98655.44;5106030;28;20057;-69
2023/12/26 03:29:29;;;;;;;1.98;1.30;;;;;;;10.67;40.05;98648.34;5105979;28;20040;-70
2023/12/26 03:31:55;;;;;;;2.13;1.40;;;;;;;10.71;39.59;98641.88;5105671;28;20036;-70
2023/12/26 03:34:23;;;;;;;2.33;1.40;;;;;;;10.73;39.75;98639.13;5104783;28;20094;-70
2023/12/26 03:36:50;;;;;;;2.70;1.40;;;;;;;10.73;39.49;98644.44;5105578;28;20048;-70
2023/12/26 03:39:17;;;;;;;1.98;1.30;;;;;;;10.75;39.35;98646.03;5105558;28;20040;-71
2023/12/26 03:41:48;;;;;;;2.45;1.30;;;;;;;10.75;38.56;98643.38;5106024;28;20090;-71
2023/12/26 03:44:15;;;;;;;2.75;1.30;;;;;;;10.80;38.17;98653.69;5108662;28;20250;-71
2023/12/26 03:46:42;;;;;;;3.15;1.80;;;;;;;10.65;38.29;98628.19;5109873;28;20044;-70
2023/12/26 03:49:08;;;;;;;2.20;1.40;;;;;;;10.75;38.70;98656.63;5109571;28;20052;-71
2023/12/26 03:51:37;;;;;;;2.30;1.60;;;;;;;10.75;38.22;98658.44;5109523;28;20039;-71
2023/12/26 03:54:04;;;;;;;2.30;1.30;;;;;;;10.77;38.38;98648.56;5109741;28;20101;-71
2023/12/26 03:56:30;;;;;;;2.10;1.30;;;;;;;10.75;38.75;98653.97;5109753;28;20104;-70
2023/12/26 03:58:57;;;;;;;2.30;1.45;;;;;;;10.73;37.99;98649.72;5109764;28;20085;-70
2023/12/26 04:01:24;;;;;;;2.50;1.50;;;;;;;10.71;38.95;98656.94;5109573;28;20059;-71
2023/12/26 04:03:51;;;;;;;3.55;1.50;;;;;;;10.71;38.57;98655.13;5109006;28;20044;-71
2023/12/26 04:06:17;;;;;;;2.25;1.50;;;;;;;10.70;37.17;98648.13;5109598;28;20043;-70
2023/12/26 04:08:45;;;;;;;2.42;1.70;;;;;;;10.57;38.23;98626.91;5109542;28;20044;-70
2023/12/26 04:11:13;;;;;;;2.10;1.38;;;;;;;10.70;37.82;98642.84;5108997;28;20285;-71
2023/12/26 04:13:40;;;;;;;2.40;1.40;;;;;;;10.55;38.16;98612.06;5109368;28;20040;-71
2023/12/26 04:16:07;;;;;;;2.38;1.40;;;;;;;10.72;38.31;98645.38;5109067;28;20048;-71
2023/12/26 04:18:34;;;;;;;2.65;1.50;;;;;;;10.72;37.93;98634.78;5109323;28;20052;-71
2023/12/26 04:21:01;;;;;;;1.80;1.42;;;;;;;10.59;37.48;98619.69;5109274;28;20090;-71
2023/12/26 04:23:27;;;;;;;3.88;1.70;;;;;;;10.69;38.36;98635.00;5109156;28;20239;-71
2023/12/26 04:25:56;;;;;;;3.50;1.77;;;;;;;10.71;38.27;98638.38;5109149;28;20052;-70
2023/12/26 04:28:22;;;;;;;2.38;1.40;;;;;;;10.71;38.32;98635.72;5108837;28;20044;-70
2023/12/26 04:30:49;;;;;;;2.42;1.40;;;;;;;10.69;38.25;98633.19;5109136;28;20039;-70
2023/12/26 04:33:16;;;;;;;2.20;1.45;;;;;;;10.71;37.60;98638.38;5109021;28;20047;-70
2023/12/26 04:35:43;;;;;;;2.90;1.52;;;;;;;10.72;37.90;98630.31;5108991;28;20253;-70
2023/12/26 04:38:09;;;;;;;2.10;1.40;;;;;;;10.71;37.54;98639.22;5108648;28;20043;-70
2023/12/26 04:40:36;;;;;;;4.90;2.05;;;;;;;10.67;37.40;98636.88;5108884;28;20051;-70
2023/12/26 04:43:08;;;;;;;2.72;1.55;;;;;;;9.51;38.15;98436.28;5108772;28;20040;-70
2023/12/26 04:45:35;;;;;;;2.22;1.60;;;;;;;10.66;37.84;98627.25;5108450;28;20051;-69
2023/12/26 04:48:04;;;;;;;3.10;1.75;;;;;;;10.52;37.40;98612.25;5108743;28;20063;-70
2023/12/26 04:50:31;;;;;;;3.80;1.77;;;;;;;10.64;36.49;98631.78;5108669;28;20292;-70
2023/12/26 04:52:58;;;;;;;2.65;1.52;;;;;;;10.63;37.92;98630.09;5108665;28;20081;-70
2023/12/26 04:55:24;;;;;;;2.53;1.48;;;;;;;10.64;37.18;98630.00;5107717;28;20105;-70
2023/12/26 04:57:51;;;;;;;2.90;1.88;;;;;;;10.63;36.99;98641.53;5108240;28;20296;-70
2023/12/26 05:00:19;;;;;;;2.60;1.50;;;;;;;10.65;37.42;98630.84;5108219;28;20200;-70
2023/12/26 05:02:46;;;;;;;2.70;1.52;;;;;;;10.44;37.47;98599.53;5108352;28;20250;-70
2023/12/26 05:05:13;;;;;;;6.25;1.60;;;;;;;10.63;37.21;98640.69;5108399;28;20040;-70
2023/12/26 05:07:39;;;;;;;3.70;1.90;;;;;;;10.59;36.99;98645.34;5108323;28;20044;-71
2023/12/26 05:10:07;;;;;;;2.30;1.50;;;;;;;10.60;38.10;98645.25;5107402;28;20056;-71
2023/12/26 05:12:34;;;;;;;2.80;1.70;;;;;;;10.62;36.99;98644.28;5107155;28;20032;-70
2023/12/26 05:15:03;;;;;;;2.72;1.60;;;;;;;10.58;36.49;98641.00;5108214;28;20039;-70
2023/12/26 05:17:31;;;;;;;4.15;1.75;;;;;;;9.70;38.30;98512.66;5108157;28;20100;-70
2023/12/26 05:19:58;;;;;;;2.40;1.73;;;;;;;10.56;37.89;98634.97;5108101;28;20040;-70
2023/12/26 05:22:25;;;;;;;3.72;1.80;;;;;;;10.57;38.07;98626.06;5107718;28;20040;-70
2023/12/26 05:24:51;;;;;;;2.50;1.50;;;;;;;10.57;37.03;98637.50;5108281;28;20055;-70
2023/12/26 05:27:18;;;;;;;2.40;1.50;;;;;;;10.59;37.70;98635.59;5108011;28;20043;-70
2023/12/26 05:29:45;;;;;;;2.97;1.77;;;;;;;10.59;37.48;98634.75;5107898;28;20063;-70
2023/12/26 05:32:12;;;;;;;4.00;1.73;;;;;;;10.58;37.95;98635.69;5107624;28;20055;-70
2023/12/26 05:34:40;;;;;;;3.40;1.90;;;;;;;10.45;36.75;98619.78;5107820;28;20044;-70
2023/12/26 05:37:06;;;;;;;2.70;1.70;;;;;;;10.57;37.09;98640.16;5107808;28;20047;-70
2023/12/26 05:39:33;;;;;;;2.65;1.75;;;;;;;10.47;35.81;98617.03;5107425;28;20047;-70
2023/12/26 05:42:00;;;;;;;2.40;1.60;;;;;;;10.59;36.27;98643.56;5107603;28;20044;-70
2023/12/26 05:44:26;;;;;;;2.75;1.70;;;;;;;10.64;35.07;98630.00;5107365;28;20040;-71
2023/12/26 05:46:53;;;;;;;2.67;1.45;;;;;;;10.64;35.92;98637.09;5107329;28;20089;-70
2023/12/26 05:49:20;;;;;;;2.80;2.03;;;;;;;10.64;36.27;98637.09;5107565;28;20043;-71
2023/12/26 05:51:48;;;;;;;2.30;1.50;;;;;;;10.64;35.46;98643.25;5107439;28;20044;-71
2023/12/26 05:54:14;;;;;;;2.53;1.60;;;;;;;10.64;34.89;98645.91;5107141;28;20296;-70
2023/12/26 05:56:45;;;;;;;2.58;1.60;;;;;;;10.46;35.66;98600.28;5107099;28;20043;-71
2023/12/26 05:59:12;;;;;;;3.45;1.60;;;;;;;10.68;35.71;98636.78;5107088;28;20046;-70
2023/12/26 06:01:39;;;;;;;2.38;1.67;;;;;;;10.67;35.78;98642.19;5107319;28;20303;-70
2023/12/26 06:04:06;;;;;;;3.17;1.65;;;;;;;10.66;36.12;98648.44;5107196;28;20097;-71
2023/12/26 06:06:32;;;;;;;2.22;1.50;;;;;;;10.69;36.03;98640.28;5106114;28;20078;-70
2023/12/26 06:09:00;;;;;;;2.58;1.73;;;;;;;10.68;35.98;98635.94;5107526;28;20177;-71
2023/12/26 06:11:27;;;;;;;3.30;1.85;;;;;;;10.68;35.97;98644.75;5107080;28;20044;-70
2023/12/26 06:13:54;;;;;;;2.42;1.75;;;;;;;10.69;36.14;98641.13;5107066;28;20082;-71
2023/12/26 06:16:20;;;;;;;3.17;1.92;;;;;;;10.66;35.86;98651.94;5106881;28;20297;-71
2023/12/26 06:18:47;;;;;;;3.63;2.20;;;;;;;10.65;36.32;98652.91;5106663;28;20036;-70
2023/12/26 06:21:14;;;;;;;2.70;1.75;;;;;;;10.67;36.69;98656.28;5107431;28;20246;-71
2023/12/26 06:23:41;;;;;;;2.65;1.60;;;;;;;10.51;37.08;98631.75;5106887;28;20116;-70
2023/12/26 06:26:10;;;;;;;2.10;1.45;;;;;;;10.64;36.98;98653.00;5107150;28;20333;-70
2023/12/26 06:28:36;;;;;;;2.63;1.50;;;;;;;10.61;37.05;98662.00;5106836;28;20044;-70
2023/12/26 06:31:03;;;;;;;2.92;1.70;;;;;;;10.60;36.51;98660.31;5105682;28;20047;-70
2023/12/26 06:33:30;;;;;;;2.65;1.65;;;;;;;10.60;36.18;98661.16;5106450;28;20239;-70
2023/12/26 06:35:57;;;;;;;2.50;1.60;;;;;;;10.62;36.21;98661.03;5106689;28;20057;-70
2023/12/26 06:38:24;;;;;;;3.00;1.80;;;;;;;10.62;35.96;98674.28;5106902;28;20048;-71
2023/12/26 06:40:50;;;;;;;2.83;1.83;;;;;;;10.58;36.86;98668.34;5106268;28;20327;-70
2023/12/26 06:43:18;;;;;;;2.88;1.73;;;;;;;10.57;36.77;98666.66;5106494;28;20044;-71
2023/12/26 06:45:45;;;;;;;3.30;2.13;;;;;;;10.55;36.08;98671.19;5106571;28;20104;-71
2023/12/26 06:48:12;;;;;;;4.20;2.10;;;;;;;10.52;36.62;98674.06;5106719;28;20044;-71
2023/12/26 06:50:38;;;;;;;2.33;1.52;;;;;;;10.50;36.03;98673.31;5106460;28;20089;-70
2023/12/26 06:53:05;;;;;;;2.92;1.80;;;;;;;10.59;36.01;98685.09;5106685;28;20051;-70
2023/12/26 06:55:32;;;;;;;2.83;1.63;;;;;;;10.57;35.74;98679.91;5106648;28;20046;-70
2023/12/26 06:57:58;;;;;;;2.92;1.77;;;;;;;10.57;35.71;98674.59;5106092;28;20043;-70
2023/12/26 07:00:26;;;;;;;3.10;1.90;;;;;;;10.62;35.34;98687.53;5106295;28;20054;-70
2023/12/26 07:02:55;;;;;;;2.80;1.60;;;;;;;10.30;35.44;98649.06;5105834;28;20188;-71
2023/12/26 07:05:21;;;;;;;2.80;1.63;;;;;;;10.65;34.95;98694.44;5106179;28;20054;-71
2023/12/26 07:07:49;;;;;;;2.63;1.80;;;;;;;10.67;35.29;98711.09;5106187;28;20105;-70
2023/12/26 07:10:15;;;;;;;2.40;1.50;;;;;;;10.13;35.06;98610.44;5105838;28;20047;-71
2023/12/26 07:12:42;;;;;;;2.55;1.67;;;;;;;10.69;35.34;98706.53;5106125;28;20039;-71
2023/12/26 07:15:10;;;;;;;2.60;1.55;;;;;;;10.51;35.18;98687.41;5106345;28;20048;-70
2023/12/26 07:17:38;;;;;;;2.50;1.70;;;;;;;10.72;35.74;98728.38;5105880;28;20097;-71
2023/12/26 07:20:08;;;;;;;2.90;1.65;;;;;;;10.69;35.66;98730.38;5105994;28;20044;-70
2023/12/26 07:22:34;;;;;;;2.50;1.60;;;;;;;10.69;35.06;98715.34;5106205;28;20047;-71
2023/12/26 07:25:01;;;;;;;3.05;2.00;;;;;;;10.72;35.17;98724.88;5105995;28;20043;-70
2023/12/26 07:27:28;;;;;;;2.25;1.45;;;;;;;10.55;35.57;98707.44;5105957;28;20054;-71
2023/12/26 07:29:55;;;;;;;2.83;1.50;;;;;;;10.72;35.09;98743.44;5106220;28;20358;-70
2023/12/26 07:32:21;;;;;;;4.45;1.85;;;;;;;10.71;35.59;98741.75;5106213;28;20330;-71
2023/12/26 07:34:49;;;;;;;3.20;1.92;;;;;;;10.75;35.77;98738.78;5105878;28;20338;-70
2023/12/26 07:37:16;;;;;;;2.72;1.73;;;;;;;10.78;36.35;98749.22;5105902;28;20116;-70
2023/12/26 07:39:43;;;;;;;2.95;1.90;;;;;;;10.76;35.48;98758.19;5105801;28;20296;-71
2023/12/26 07:42:09;;;;;;;3.05;1.80;;;;;;;10.77;35.76;98767.84;5106381;28;20044;-70
2023/12/26 07:44:36;;;;;;;2.08;1.48;;;;;;;10.73;35.96;98753.09;5105376;28;20052;-71
2023/12/26 07:47:03;;;;;;;3.38;1.95;;;;;;;10.80;36.06;98763.22;5105828;28;20066;-70
2023/12/26 07:49:29;;;;;;;2.70;1.70;;;;;;;7.69;36.73;98258.50;5105343;28;20056;-70
2023/12/26 07:51:57;;;;;;;2.80;1.73;;;;;;;10.76;36.25;98767.00;5105552;28;20089;-71
2023/12/26 07:54:24;;;;;;;4.35;1.90;;;;;;;10.77;36.48;98775.78;5105514;28;20086;-70
2023/12/26 07:56:51;;;;;;;2.63;1.77;;;;;;;10.77;36.75;98762.53;5105727;28;20248;-71
2023/12/26 07:59:17;;;;;;;2.58;1.90;;;;;;;10.74;36.54;98758.28;5105833;28;20048;-71
2023/12/26 08:01:44;;;;;;;3.15;1.85;;;;;;;10.72;36.62;98757.53;5105550;28;20365;-69
2023/12/26 08:04:11;;;;;;;2.60;1.80;;;;;;;10.73;37.20;98761.91;5105599;28;20044;-70
2023/12/26 08:06:38;;;;;;;3.30;1.73;;;;;;;10.76;36.79;98756.38;5105806;28;20056;-71
2023/12/26 08:09:06;;;;;;;2.92;2.30;;;;;;;10.72;37.45;98762.00;5104492;28;20097;-71
2023/12/26 08:11:33;;;;;;;2.95;1.80;;;;;;;10.68;37.73;98758.69;5105506;28;20055;-71
2023/12/26 08:13:59;;;;;;;3.00;2.13;;;;;;;10.57;37.65;98751.44;5105128;28;20308;-71
2023/12/26 08:16:26;;;;;;;4.97;2.22;;;;;;;10.63;37.65;98760.78;5104885;28;20280;-71
2023/12/26 08:18:54;;;;;;;4.35;1.88;;;;;;;10.66;37.63;98759.75;5105466;28;20276;-71
2023/12/26 08:21:20;;;;;;;2.97;1.90;;;;;;;10.67;37.94;98775.53;5105066;28;20212;-70
2023/12/26 08:23:47;;;;;;;3.22;2.15;;;;;;;10.51;37.55;98746.53;5105230;28;20055;-71
2023/12/26 08:26:15;;;;;;;2.65;1.88;;;;;;;10.64;38.17;98765.13;5104865;28;20226;-70
2023/12/26 08:28:42;;;;;;;2.70;1.88;;;;;;;10.64;38.02;98762.50;5105307;28;20059;-71
2023/12/26 08:31:10;;;;;;;3.22;1.70;;;;;;;10.64;38.11;98765.13;5107664;28;20271;-71
2023/12/26 08:33:38;;;;;;;3.78;1.80;;;;;;;10.64;37.58;98777.53;5108721;28;20404;-71
2023/12/26 08:36:05;;;;;;;2.70;1.63;;;;;;;10.63;37.69;98760.78;5108685;28;20242;-70
2023/12/26 08:38:32;;;;;;;3.42;1.88;;;;;;;10.59;37.71;98791.94;5107836;28;20220;-71
2023/12/26 08:40:59;;;;;;;2.53;1.67;;;;;;;10.60;37.53;98767.13;5108907;28;20044;-71
2023/12/26 08:43:28;;;;;;;3.78;1.85;;;;;;;10.62;37.16;98782.94;5108538;28;20078;-71
2023/12/26 08:45:55;;;;;;;3.88;1.90;;;;;;;10.64;37.28;98772.25;5108786;28;20262;-71
2023/12/26 08:48:22;;;;;;;3.13;1.70;;;;;;;10.64;37.37;98796.09;5108301;28;20109;-70
2023/12/26 08:50:48;;;;;;;2.72;1.77;;;;;;;10.67;37.01;98782.63;5107838;28;20089;-71
2023/12/26 08:53:15;;;;;;;3.13;1.70;;;;;;;10.71;37.25;98784.16;5108090;28;20074;-72
2023/12/26 08:55:45;;;;;;;2.80;1.60;;;;;;;9.76;37.44;98641.06;5108670;28;20071;-71
2023/12/26 08:58:12;;;;;;;3.63;1.95;;;;;;;10.60;37.57;98804.25;5108545;28;20048;-72
2023/12/26 09:00:40;;;;;;;4.05;2.25;;;;;;;10.69;37.77;98818.69;5108478;28;20318;-72
2023/12/26 09:03:08;;;;;;;2.85;1.70;;;;;;;10.67;38.05;98833.84;5108388;28;20089;-71
2023/12/26 09:05:34;;;;;;;2.63;1.70;;;;;;;10.67;38.34;98811.78;5108467;28;20067;-71
2023/12/26 09:08:01;;;;;;;3.00;2.00;;;;;;;10.52;38.38;98800.38;5108063;28;20308;-71
2023/12/26 09:10:28;;;;;;;2.50;1.50;;;;;;;10.66;38.85;98820.69;5108054;28;20060;-71
2023/12/26 09:12:54;;;;;;;3.08;1.77;;;;;;;10.65;39.05;98834.88;5108265;28;20048;-71
2023/12/26 09:15:21;;;;;;;3.85;1.80;;;;;;;10.67;39.25;98822.41;5108282;28;20039;-71
2023/12/26 09:17:49;;;;;;;3.05;1.60;;;;;;;10.64;39.56;98828.75;5108339;28;20050;-70
2023/12/26 09:20:16;;;;;;;3.28;1.83;;;;;;;10.63;40.06;98834.13;5108648;28;20063;-71
2023/12/26 09:22:43;;;;;;;3.75;1.90;;;;;;;10.59;39.95;98836.13;5107597;28;20081;-71
2023/12/26 09:25:09;;;;;;;3.42;1.95;;;;;;;10.41;40.59;98814.31;5107918;28;20078;-71
2023/12/26 09:27:37;;;;;;;6.28;1.83;;;;;;;10.55;41.13;98854.03;5108178;28;20105;-71
2023/12/26 09:30:04;;;;;;;3.55;1.98;;;;;;;10.52;41.39;98877.22;5108161;28;20054;-71
2023/12/26 09:32:30;;;;;;;3.10;1.73;;;;;;;10.46;41.86;98869.66;5107857;28;20097;-71
2023/12/26 09:34:58;;;;;;;2.63;1.85;;;;;;;10.39;42.50;98916.00;5108081;28;20052;-71
2023/12/26 09:37:25;;;;;;;4.00;1.98;;;;;;;10.36;43.08;98889.69;5107831;28;20085;-71
2023/12/26 09:39:52;;;;;;;2.97;1.85;;;;;;;10.30;43.49;98895.38;5106457;28;20060;-70
2023/12/26 09:42:22;;;;;;;4.32;1.70;;;;;;;10.08;43.77;98870.22;5107411;28;20292;-71
2023/12/26 09:44:50;;;;;;;4.18;1.77;;;;;;;10.24;43.80;98899.25;5107639;28;20058;-71
2023/12/26 09:47:19;;;;;;;2.88;1.80;;;;;;;9.67;43.91;98825.06;5107352;28;20040;-70
2023/12/26 09:49:47;;;;;;;2.67;1.77;;;;;;;10.17;44.03;98904.06;5106391;28;20093;-70
2023/12/26 09:52:15;;;;;;;3.08;1.70;;;;;;;10.17;44.30;98930.56;5107470;28;20051;-70
2023/12/26 09:54:45;;;;;;;2.85;1.80;;;;;;;10.13;44.58;98931.69;5107111;28;20040;-70
2023/12/26 09:57:13;;;;;;;8.63;2.00;;;;;;;10.10;44.88;98944.25;5106448;28;20047;-71
2023/12/26 09:59:41;;;;;;;3.55;1.70;;;;;;;10.04;44.88;98947.25;5107062;28;20242;-71
2023/12/26 10:02:12;;;;;;;2.97;1.90;;;;;;;9.97;45.30;98948.56;5107042;28;20094;-71
2023/12/26 10:04:39;;;;;;;3.33;1.95;;;;;;;9.97;45.61;98946.78;5106714;28;20304;-71
2023/12/26 10:07:05;;;;;;;3.28;2.08;;;;;;;9.91;45.84;98940.03;5107207;28;20085;-72
2023/12/26 10:09:33;;;;;;;5.15;2.05;;;;;;;9.85;45.98;98948.34;5106861;28;20052;-70
2023/12/26 10:12:00;;;;;;;4.43;2.35;;;;;;;9.88;46.09;98926.13;5107145;28;20052;-71
2023/12/26 10:14:29;;;;;;;3.08;1.90;;;;;;;9.90;46.08;98933.06;5106764;28;20097;-71
2023/12/26 10:16:56;;;;;;;4.05;2.28;;;;;;;9.90;46.25;98925.09;5106667;28;20044;-72
2023/12/26 10:19:23;;;;;;;3.22;1.92;;;;;;;9.85;46.42;98943.06;5106725;28;20067;-72
2023/12/26 10:21:50;;;;;;;4.53;1.98;;;;;;;9.84;46.71;98921.97;5106957;28;20093;-72
2023/12/26 10:24:17;;;;;;;3.67;2.25;;;;;;;9.81;47.10;98930.94;5107047;28;20031;-72
2023/12/26 10:26:45;;;;;;;4.53;2.00;;;;;;;9.83;47.25;98933.50;5106744;28;20250;-71
2023/12/26 10:29:13;;;;;;;3.72;1.98;;;;;;;9.76;47.21;98940.09;5106346;28;20044;-71
2023/12/26 10:31:40;;;;;;;4.10;1.73;;;;;;;9.78;47.33;98936.41;5106733;28;20219;-71
2023/12/26 10:34:14;;;;;;;3.10;1.70;;;;;;;9.05;47.73;98829.53;5106705;28;20040;-72
2023/12/26 10:36:44;;;;;;;3.00;1.97;;;;;;;9.69;47.91;98938.75;5106631;28;20051;-71
2023/12/26 10:39:12;;;;;;;4.10;2.30;;;;;;;9.70;47.96;98948.38;5106351;28;20433;-71
2023/12/26 10:41:39;;;;;;;5.22;2.20;;;;;;;9.72;48.03;98944.72;5106459;28;20040;-71
2023/12/26 10:44:08;;;;;;;3.88;1.95;;;;;;;9.74;47.96;98939.34;5106518;28;20051;-71
2023/12/26 10:46:35;;;;;;;3.15;1.80;;;;;;;9.73;48.08;98949.06;5106790;28;20101;-71
2023/12/26 10:49:05;;;;;;;4.97;1.92;;;;;;;9.75;48.08;98944.53;5106461;28;20043;-72
2023/12/26 10:51:33;;;;;;;3.95;2.53;;;;;;;9.76;48.44;98959.47;5106675;28;20044;-72
2023/12/26 10:54:08;;;;;;;3.08;2.00;;;;;;;9.24;48.66;98890.16;5104834;28;20055;-72
2023/12/26 10:56:35;;;;;;;5.80;1.98;;;;;;;9.76;48.35;98955.97;5105966;28;20089;-72
2023/12/26 10:59:04;;;;;;;3.65;1.92;;;;;;;9.70;48.87;98949.25;5106499;28;20052;-71
2023/12/26 13:53:21;;;;;;;4.88;2.60;;;;;;;9.61;53.44;98970.94;5107252;28;20035;-72
2023/12/26 13:55:47;;;;;;;5.22;2.33;;;;;;;9.64;53.51;98970.75;5107732;28;20036;-71
2023/12/26 13:58:14;;;;;;;3.60;2.33;;;;;;;9.56;53.71;98970.34;5107308;28;20181;-72
2023/12/26 14:00:41;;;;;;;6.07;3.03;;;;;;;9.58;53.57;98976.41;5107174;28;20051;-72
2023/12/26 14:03:07;;;;;;;4.68;2.25;;;;;;;9.54;53.87;98975.72;5106893;28;20051;-72
2023/12/26 14:05:34;;;;;;;4.47;2.22;;;;;;;9.54;53.66;99001.34;5106930;28;20085;-72
2023/12/26 14:08:00;;;;;;;4.53;2.53;;;;;;;9.54;53.92;98991.59;5107450;28;20105;-72
2023/12/26 14:10:28;;;;;;;3.20;1.85;;;;;;;9.49;54.17;98985.72;5106844;28;20059;-72
2023/12/26 14:12:55;;;;;;;3.83;2.25;;;;;;;9.52;53.93;98992.63;5106786;28;20039;-72
2023/12/26 14:15:21;;;;;;;4.63;2.28;;;;;;;9.50;54.27;99008.59;5107029;28;20226;-71
2023/12/26 14:17:48;;;;;;;3.60;2.00;;;;;;;9.51;54.34;99014.72;5106832;28;20078;-72
2023/12/26 14:20:15;;;;;;;5.03;2.25;;;;;;;9.50;54.22;99005.94;5105644;28;20064;-74
2023/12/26 14:22:42;;;;;;;4.38;2.85;;;;;;;9.52;54.37;99019.09;5105786;28;20296;-74
2023/12/26 14:25:08;;;;;;;3.58;2.03;;;;;;;9.46;54.52;98998.25;5106934;28;20032;-72